createdAt,value
2022-10-03T00:01:59.501Z,4.43
2022-10-03T00:04:32.425Z,3.97
2022-10-03T00:07:33.894Z,4.65
2022-10-03T00:10:18.444Z,4.10
2022-10-03T00:15:53.718Z,4.25
2022-10-03T00:18:23.969Z,4.45
2022-10-03T00:21:07.145Z,4.57
2022-10-03T00:23:52.304Z,4.43
2022-10-03T00:26:40.757Z,4.53
2022-10-03T00:29:27.065Z,4.70
2022-10-03T00:32:31.899Z,5.10
2022-10-03T00:35:18.976Z,5.20
2022-10-03T00:38:23.407Z,5.28
2022-10-03T00:41:04.608Z,5.77
2022-10-03T00:43:56.540Z,5.45
2022-10-03T00:46:42.455Z,5.60
2022-10-03T00:49:40.582Z,5.75
2022-10-03T00:52:47.557Z,5.47
2022-10-03T00:55:45.374Z,5.53
2022-10-03T00:58:20.133Z,5.22
2022-10-03T01:00:50.528Z,5.60
2022-10-03T01:03:41.865Z,5.90
2022-10-03T01:06:27.032Z,5.65
2022-10-03T01:09:06.841Z,6.15
2022-10-03T01:11:54.997Z,6.15
2022-10-03T01:14:52.879Z,6.30
2022-10-03T01:17:36.177Z,6.47
2022-10-03T01:20:09.821Z,6.60
2022-10-03T01:22:37.279Z,6.60
2022-10-03T01:25:30.017Z,6.47
2022-10-03T01:28:53.526Z,6.20
2022-10-03T01:31:50.352Z,6.07
2022-10-03T01:34:26.491Z,6.63
2022-10-03T01:37:17.407Z,6.63
2022-10-03T01:39:55.425Z,6.63
2022-10-03T01:42:54.640Z,6.40
2022-10-03T01:45:46.590Z,6.78
2022-10-03T01:48:41.568Z,6.70
2022-10-03T01:53:50.089Z,7.07
2022-10-03T01:56:33.110Z,7.03
2022-10-03T01:59:42.991Z,7.13
2022-10-03T02:02:38.741Z,7.13
2022-10-03T02:05:21.137Z,7.40
2022-10-03T02:07:55.911Z,7.20
2022-10-03T02:10:36.016Z,7.57
2022-10-03T02:13:22.792Z,7.60
2022-10-03T02:16:15.607Z,7.72
2022-10-03T02:19:06.635Z,7.38
2022-10-03T02:21:34.077Z,7.60
2022-10-03T02:24:15.177Z,7.68
2022-10-03T02:27:11.758Z,7.85
2022-10-03T02:30:03.342Z,8.18
2022-10-03T02:32:55.530Z,7.50
2022-10-03T02:35:42.906Z,7.80
2022-10-03T02:38:27.435Z,8.27
2022-10-03T02:41:00.641Z,8.00
2022-10-03T02:44:06.875Z,7.75
2022-10-03T02:46:46.227Z,7.95
2022-10-03T02:49:33.602Z,8.55
2022-10-03T02:52:23.517Z,8.68
2022-10-03T02:55:09.534Z,7.65
2022-10-03T02:58:11.145Z,8.32
2022-10-03T03:00:41.321Z,8.50
2022-10-03T03:03:44.461Z,8.52
2022-10-03T03:06:47.245Z,7.90
2022-10-03T03:09:20.887Z,8.07
2022-10-03T03:12:07.714Z,8.77
2022-10-03T03:14:54.182Z,8.27
2022-10-03T03:17:33.622Z,7.82
2022-10-03T03:20:12.817Z,8.65
2022-10-03T03:22:40.073Z,8.70
2022-10-03T03:25:29.319Z,8.05
2022-10-03T03:28:25.774Z,9.40
2022-10-03T03:31:24.550Z,8.95
2022-10-03T03:34:33.923Z,7.88
2022-10-03T03:37:27.594Z,8.15
2022-10-03T03:40:03.665Z,7.82
2022-10-03T03:43:09.118Z,8.35
2022-10-03T03:45:46.361Z,8.10
2022-10-03T03:48:22.856Z,8.48
2022-10-03T03:50:57.066Z,8.63
2022-10-03T03:53:46.974Z,8.55
2022-10-03T03:56:23.285Z,8.32
2022-10-03T03:59:21.165Z,8.65
2022-10-03T04:01:59.146Z,8.52
2022-10-03T04:04:53.122Z,9.00
2022-10-03T04:07:30.009Z,8.38
2022-10-03T04:10:15.053Z,8.50
2022-10-03T04:13:05.611Z,8.98
2022-10-03T04:15:59.659Z,9.77
2022-10-03T04:18:54.382Z,9.47
2022-10-03T04:21:44.050Z,9.95
2022-10-03T04:24:49.039Z,10.13
2022-10-03T04:27:53.963Z,9.43
2022-10-03T04:30:44.668Z,9.77
2022-10-03T04:33:25.527Z,10.70
2022-10-03T04:35:59.043Z,9.90
2022-10-03T04:38:36.428Z,10.03
2022-10-03T04:41:27.559Z,9.60
2022-10-03T04:44:13.406Z,9.30
2022-10-03T04:46:55.109Z,9.50
2022-10-03T04:49:28.492Z,10.18
2022-10-03T04:52:14.546Z,10.80
2022-10-03T04:55:17.073Z,9.80
2022-10-03T04:57:53.851Z,9.38
2022-10-03T05:01:02.567Z,9.90
2022-10-03T05:03:52.845Z,10.18
2022-10-03T05:06:28.133Z,9.77
2022-10-03T05:09:43.653Z,9.82
2022-10-03T05:12:41.646Z,9.32
2022-10-03T05:15:11.873Z,9.27
2022-10-03T05:18:03.617Z,9.68
2022-10-03T05:20:58.867Z,9.30
2022-10-03T05:23:42.169Z,9.13
2022-10-03T05:26:44.893Z,9.38
2022-10-03T05:29:17.801Z,10.15
2022-10-03T05:32:06.708Z,10.45
2022-10-03T05:35:00.896Z,9.75
2022-10-03T05:37:58.274Z,10.23
2022-10-03T05:40:27.066Z,10.38
2022-10-03T05:43:16.184Z,10.20
2022-10-03T05:46:02.452Z,11.05
2022-10-03T05:48:43.473Z,10.73
2022-10-03T05:51:22.902Z,11.05
2022-10-03T05:54:08.780Z,10.93
2022-10-03T05:57:07.856Z,10.13
2022-10-03T05:59:39.174Z,10.65
2022-10-03T06:02:21.284Z,10.95
2022-10-03T06:05:20.085Z,10.32
2022-10-03T06:08:31.886Z,10.45
2022-10-03T06:11:17.112Z,11.00
2022-10-03T06:14:08.640Z,10.68
2022-10-03T06:16:54.334Z,11.25
2022-10-03T06:19:47.432Z,11.18
2022-10-03T06:22:45.685Z,11.27
2022-10-03T06:25:38.036Z,10.90
2022-10-03T06:28:21.107Z,11.23
2022-10-03T06:31:11.921Z,11.43
2022-10-03T06:33:45.130Z,11.55
2022-10-03T06:36:43.364Z,8.05
2022-10-03T06:39:32.362Z,10.63
2022-10-03T06:42:18.330Z,11.70
2022-10-03T06:45:30.690Z,12.05
2022-10-03T06:48:23.232Z,11.75
2022-10-03T06:51:18.463Z,11.98
2022-10-03T06:54:07.172Z,11.52
2022-10-03T06:57:03.041Z,12.68
2022-10-03T06:59:45.260Z,12.88
2022-10-03T07:02:21.823Z,12.05
2022-10-03T07:05:07.890Z,13.55
2022-10-03T07:07:50.284Z,13.25
2022-10-03T07:10:42.184Z,12.88
2022-10-03T07:13:15.746Z,12.90
2022-10-03T07:16:33.264Z,12.02
2022-10-03T07:19:27.646Z,14.07
2022-10-03T07:22:25.858Z,14.02
2022-10-03T07:25:22.537Z,13.23
2022-10-03T07:27:59.320Z,12.30
2022-10-03T07:30:27.877Z,11.73
2022-10-03T07:33:06.865Z,11.25
2022-10-03T07:36:04.176Z,12.50
2022-10-03T07:38:58.481Z,12.02
2022-10-03T07:41:32.448Z,12.32
2022-10-03T07:44:18.435Z,12.07
2022-10-03T07:47:09.396Z,13.40
2022-10-03T07:49:46.121Z,13.13
2022-10-03T07:52:54.009Z,13.65
2022-10-03T07:55:42.745Z,13.18
2022-10-03T07:58:37.895Z,14.45
2022-10-03T08:01:26.496Z,13.02
2022-10-03T08:04:07.669Z,13.40
2022-10-03T08:06:38.711Z,15.00
2022-10-03T08:09:40.755Z,14.23
2022-10-03T08:12:33.916Z,14.27
2022-10-03T08:15:11.105Z,13.05
2022-10-03T08:18:11.837Z,13.55
2022-10-03T08:20:58.796Z,13.57
2022-10-03T08:24:03.909Z,13.68
2022-10-03T08:26:59.227Z,14.52
2022-10-03T08:29:59.864Z,14.48
2022-10-03T08:32:47.802Z,13.30
2022-10-03T08:35:38.783Z,14.90
2022-10-03T08:38:25.004Z,14.30
2022-10-03T08:41:22.377Z,14.10
2022-10-03T08:43:52.710Z,13.70
2022-10-03T08:46:44.092Z,13.95
2022-10-03T08:49:44.751Z,13.45
2022-10-03T08:52:17.021Z,14.13
2022-10-03T08:55:22.682Z,14.95
2022-10-03T08:58:15.224Z,14.40
2022-10-03T09:01:07.683Z,13.98
2022-10-03T09:04:12.863Z,14.32
2022-10-03T09:09:42.236Z,13.65
2022-10-03T09:12:31.692Z,14.77
2022-10-03T09:15:20.186Z,14.15
2022-10-03T09:18:08.282Z,13.27
2022-10-03T09:20:53.090Z,14.10
2022-10-03T09:23:35.641Z,13.93
2022-10-03T09:26:42.562Z,13.50
2022-10-03T09:29:49.529Z,12.55
2022-10-03T09:32:45.695Z,13.77
2022-10-03T09:35:34.774Z,13.25
2022-10-03T09:38:21.431Z,13.40
2022-10-03T09:40:53.224Z,12.20
2022-10-03T09:43:48.466Z,12.18
2022-10-03T09:49:13.524Z,11.27
2022-10-03T09:52:29.105Z,12.38
2022-10-03T09:58:01.312Z,10.80
2022-10-03T10:00:34.318Z,10.20
2022-10-03T10:03:12.889Z,9.50
2022-10-03T10:05:52.064Z,9.35
2022-10-03T10:08:37.671Z,8.75
2022-10-03T10:11:12.740Z,9.02
2022-10-03T10:14:07.065Z,8.98
2022-10-03T10:16:56.679Z,8.80
2022-10-03T10:19:35.321Z,9.18
2022-10-03T10:22:53.755Z,8.85
2022-10-03T10:25:42.322Z,9.48
2022-10-03T10:28:39.395Z,9.10
2022-10-03T10:31:32.068Z,8.23
2022-10-03T10:34:18.275Z,8.73
2022-10-03T10:37:04.522Z,8.65
2022-10-03T10:39:40.645Z,7.38
2022-10-03T10:42:34.256Z,6.65
2022-10-03T10:45:20.503Z,7.40
2022-10-03T10:48:09.038Z,6.03
2022-10-03T10:51:21.335Z,6.10
2022-10-03T10:54:13.475Z,6.25
2022-10-03T10:57:07.951Z,6.57
2022-10-03T10:59:53.179Z,6.00
2022-10-03T11:02:46.318Z,6.65
2022-10-03T11:05:22.767Z,6.25
2022-10-03T11:08:08.825Z,5.82
2022-10-03T11:10:39.445Z,4.63
2022-10-03T11:13:35.545Z,4.70
2022-10-03T11:16:17.004Z,5.05
2022-10-03T11:19:26.976Z,5.68
2022-10-03T11:22:20.218Z,5.25
2022-10-03T11:24:57.182Z,5.07
2022-10-03T11:27:46.980Z,4.57
2022-10-03T11:30:36.178Z,5.53
2022-10-03T11:33:19.444Z,4.60
2022-10-03T11:36:03.845Z,4.07
2022-10-03T11:38:36.263Z,4.47
2022-10-03T11:41:25.088Z,4.45
2022-10-03T11:44:10.664Z,4.45
2022-10-03T11:46:50.356Z,4.40
2022-10-03T11:49:25.318Z,4.75
2022-10-03T11:52:15.907Z,4.20
2022-10-03T11:54:44.628Z,3.92
2022-10-03T11:57:21.028Z,4.68
2022-10-03T11:59:53.282Z,4.60
2022-10-03T12:02:23.239Z,4.65
2022-10-03T12:05:00.521Z,4.65
2022-10-03T12:07:58.777Z,4.97
2022-10-03T12:10:44.447Z,4.80
2022-10-03T12:13:16.583Z,5.00
2022-10-03T12:15:52.137Z,4.88
2022-10-03T12:18:40.614Z,4.90
2022-10-03T12:21:07.924Z,4.80
2022-10-03T12:24:18.405Z,4.75
2022-10-03T12:27:06.660Z,4.72
2022-10-03T12:29:36.279Z,4.68
2022-10-03T12:32:06.517Z,4.82
2022-10-03T12:34:42.676Z,4.72
2022-10-03T12:37:41.094Z,4.40
2022-10-03T12:40:32.684Z,4.82
2022-10-03T12:43:02.677Z,4.65
2022-10-03T12:45:38.984Z,4.93
2022-10-03T12:48:46.020Z,4.90
2022-10-03T12:51:32.372Z,4.60
2022-10-03T12:54:26.934Z,4.50
2022-10-03T12:57:20.130Z,4.13
2022-10-03T12:59:53.662Z,4.30
2022-10-03T13:02:24.403Z,4.30
2022-10-03T13:05:29.181Z,4.00
2022-10-03T13:08:11.630Z,3.78
2022-10-03T13:10:42.728Z,4.30
2022-10-03T13:13:26.795Z,4.43
2022-10-03T13:16:13.426Z,4.75
2022-10-03T13:18:51.016Z,3.92
2022-10-03T13:21:46.841Z,5.25
2022-10-03T13:24:33.463Z,4.40
2022-10-03T13:27:41.318Z,4.82
2022-10-03T13:30:17.332Z,22.67
2022-10-03T13:32:47.143Z,17.50
2022-10-03T13:35:39.057Z,5.85
2022-10-03T13:38:23.628Z,7.50
2022-10-03T13:43:36.237Z,5.47
2022-10-03T13:46:08.389Z,5.50
2022-10-03T13:48:35.763Z,4.30
2022-10-03T13:51:06.544Z,4.07
2022-10-03T13:53:51.898Z,4.30
2022-10-03T13:56:21.987Z,5.28
2022-10-03T13:59:13.389Z,6.55
2022-10-03T14:01:46.708Z,11.27
2022-10-03T14:04:38.688Z,9.50
2022-10-03T14:07:45.537Z,7.93
2022-10-03T14:10:53.944Z,7.10
2022-10-03T14:13:43.327Z,14.95
2022-10-03T14:17:12.237Z,6.30
2022-10-03T14:19:53.738Z,4.30
2022-10-03T14:23:00.030Z,5.40
2022-10-03T14:25:34.614Z,3.97
2022-10-03T14:28:41.386Z,5.35
2022-10-03T14:31:26.361Z,4.88
2022-10-03T14:34:11.302Z,6.00
2022-10-03T14:36:49.871Z,4.82
2022-10-03T14:39:42.186Z,3.60
2022-10-03T14:42:30.641Z,5.90
2022-10-03T14:45:08.464Z,13.65
2022-10-03T14:47:40.772Z,12.30
2022-10-03T14:50:17.396Z,5.90
2022-10-03T14:53:08.635Z,3.80
2022-10-03T14:55:43.899Z,8.75
2022-10-03T14:58:21.746Z,6.85
2022-10-03T15:00:55.294Z,4.97
2022-10-03T15:03:31.921Z,4.78
2022-10-03T15:06:03.553Z,6.97
2022-10-03T15:08:37.780Z,7.38
2022-10-03T15:11:06.435Z,6.00
2022-10-03T15:13:55.071Z,10.88
2022-10-03T15:16:22.638Z,8.55
2022-10-03T15:18:57.739Z,7.68
2022-10-03T15:21:25.505Z,8.15
2022-10-03T15:23:56.711Z,7.68
2022-10-03T15:26:24.708Z,8.25
2022-10-03T15:28:53.561Z,7.75
2022-10-03T15:31:38.537Z,6.53
2022-10-03T15:34:16.656Z,17.08
2022-10-03T15:36:46.883Z,8.13
2022-10-03T15:39:20.673Z,7.25
2022-10-03T15:42:03.636Z,3.08
2022-10-03T15:44:40.322Z,4.38
2022-10-03T15:47:34.878Z,4.05
2022-10-03T15:50:07.012Z,4.07
2022-10-03T15:52:53.929Z,5.55
2022-10-03T15:55:42.349Z,5.82
2022-10-03T15:58:28.952Z,5.25
2022-10-03T16:01:20.486Z,5.47
2022-10-03T16:03:49.929Z,5.05
2022-10-03T16:06:17.237Z,4.75
2022-10-03T16:09:16.142Z,5.68
2022-10-03T16:11:49.581Z,6.60
2022-10-03T16:14:41.317Z,8.17
2022-10-03T16:17:22.053Z,8.30
2022-10-03T16:19:54.989Z,8.15
2022-10-03T16:23:06.098Z,7.70
2022-10-03T16:25:47.924Z,5.55
2022-10-03T16:28:18.361Z,6.82
2022-10-03T16:30:54.222Z,6.05
2022-10-03T16:33:26.788Z,5.20
2022-10-03T16:35:57.271Z,5.35
2022-10-03T16:38:32.618Z,4.57
2022-10-03T16:41:02.379Z,4.75
2022-10-03T16:43:31.368Z,3.85
2022-10-03T16:46:01.022Z,5.88
2022-10-03T16:48:51.791Z,6.10
2022-10-03T16:51:23.573Z,5.32
2022-10-03T16:53:52.958Z,4.53
2022-10-03T16:56:27.191Z,4.68
2022-10-03T16:58:56.085Z,4.55
2022-10-03T17:01:28.276Z,5.13
2022-10-03T17:04:20.981Z,5.30
2022-10-03T17:06:49.913Z,5.10
2022-10-03T17:09:43.341Z,4.82
2022-10-03T17:12:30.180Z,5.63
2022-10-03T17:15:01.743Z,16.38
2022-10-03T17:17:50.291Z,21.92
2022-10-03T17:20:43.982Z,18.08
2022-10-03T17:23:17.309Z,14.13
2022-10-03T17:26:03.484Z,12.30
2022-10-03T17:28:48.701Z,13.40
2022-10-03T17:31:39.582Z,14.90
2022-10-03T17:34:18.149Z,17.90
2022-10-03T17:37:10.404Z,24.75
2022-10-03T17:39:56.421Z,140.48
2022-10-03T17:42:38.437Z,261.55
2022-10-03T17:45:16.635Z,228.05
2022-10-03T17:47:49.826Z,150.30
2022-10-03T17:50:30.608Z,104.05
2022-10-03T17:52:57.916Z,62.63
2022-10-03T17:55:54.762Z,39.58
2022-10-03T17:58:22.114Z,19.33
2022-10-03T18:01:01.859Z,14.30
2022-10-03T18:03:30.213Z,8.73
2022-10-03T18:06:37.422Z,8.05
2022-10-03T18:09:10.360Z,8.27
2022-10-03T18:11:38.812Z,6.70
2022-10-03T18:14:12.262Z,7.10
2022-10-03T18:17:11.884Z,6.47
2022-10-03T18:20:16.734Z,6.68
2022-10-03T18:22:47.501Z,6.28
2022-10-03T18:26:19.024Z,6.15
2022-10-03T18:29:17.492Z,5.97
2022-10-03T18:32:10.834Z,6.53
2022-10-03T18:35:04.181Z,5.97
2022-10-03T18:37:31.382Z,5.88
2022-10-03T18:39:58.790Z,6.25
2022-10-03T18:42:28.146Z,6.40
2022-10-03T18:44:56.904Z,5.75
2022-10-03T18:47:34.219Z,7.57
2022-10-03T18:50:26.156Z,6.13
2022-10-03T18:52:55.334Z,6.30
2022-10-03T18:55:31.662Z,6.90
2022-10-03T18:58:14.721Z,6.80
2022-10-03T19:01:02.606Z,6.38
2022-10-03T19:03:40.437Z,6.57
2022-10-03T19:06:22.044Z,7.13
2022-10-03T19:08:58.478Z,7.45
2022-10-03T19:11:35.605Z,7.75
2022-10-03T19:14:29.341Z,8.60
2022-10-03T19:17:22.004Z,8.80
2022-10-03T19:19:58.879Z,7.35
2022-10-03T19:22:32.131Z,7.97
2022-10-03T19:25:02.563Z,7.45
2022-10-03T19:27:40.332Z,7.25
2022-10-03T19:30:08.977Z,7.68
2022-10-03T19:33:00.477Z,7.30
2022-10-03T19:35:28.035Z,7.10
2022-10-03T19:38:16.054Z,7.13
2022-10-03T19:41:02.066Z,7.07
2022-10-03T19:43:45.704Z,6.93
2022-10-03T19:46:15.988Z,7.10
2022-10-03T19:48:53.224Z,7.15
2022-10-03T19:51:25.571Z,7.18
2022-10-03T19:53:54.561Z,7.10
2022-10-03T19:56:22.160Z,7.03
2022-10-03T19:58:59.776Z,7.32
2022-10-03T20:01:27.205Z,7.00
2022-10-03T20:03:57.639Z,7.72
2022-10-03T20:06:29.599Z,8.02
2022-10-03T20:09:01.539Z,7.82
2022-10-03T20:11:45.064Z,8.90
2022-10-03T20:14:26.694Z,8.05
2022-10-03T20:16:56.269Z,8.63
2022-10-03T20:19:27.825Z,8.18
2022-10-03T20:21:56.513Z,8.23
2022-10-03T20:24:39.086Z,8.57
2022-10-03T20:27:32.959Z,8.23
2022-10-03T20:30:06.290Z,9.10
2022-10-03T20:32:35.320Z,8.35
2022-10-03T20:35:02.603Z,9.60
2022-10-03T20:37:39.586Z,9.13
2022-10-03T20:40:41.819Z,8.55
2022-10-03T20:43:43.235Z,8.98
2022-10-03T20:46:19.540Z,9.02
2022-10-03T20:49:03.742Z,9.43
2022-10-03T20:51:52.859Z,9.32
2022-10-03T20:54:21.265Z,9.63
2022-10-03T20:57:24.897Z,9.13
2022-10-03T21:00:07.046Z,9.35
2022-10-03T21:02:52.983Z,9.60
2022-10-03T21:05:44.664Z,9.50
2022-10-03T21:08:18.669Z,9.68
2022-10-03T21:10:56.884Z,9.25
2022-10-03T21:13:52.736Z,9.48
2022-10-03T21:16:32.588Z,9.85
2022-10-03T21:19:05.209Z,10.07
2022-10-03T21:21:40.992Z,9.60
2022-10-03T21:24:16.950Z,9.77
2022-10-03T21:26:49.097Z,9.55
2022-10-03T21:29:37.528Z,9.73
2022-10-03T21:32:18.555Z,10.20
2022-10-03T21:35:07.657Z,10.05
2022-10-03T21:38:06.190Z,9.70
2022-10-03T21:41:02.399Z,10.05
2022-10-03T21:43:32.353Z,9.60
2022-10-03T21:46:11.781Z,9.80
2022-10-03T21:48:48.321Z,10.65
2022-10-03T21:51:38.038Z,10.50
2022-10-03T21:54:21.302Z,9.60
2022-10-03T21:56:51.554Z,10.25
2022-10-03T21:59:22.294Z,9.38
2022-10-03T22:02:02.708Z,10.07
2022-10-03T22:04:57.876Z,8.70
2022-10-03T22:07:41.660Z,9.32
2022-10-03T22:10:21.118Z,9.57
2022-10-03T22:12:56.648Z,9.55
2022-10-03T22:15:33.798Z,9.38
2022-10-03T22:18:06.897Z,9.85
2022-10-03T22:20:34.458Z,9.07
2022-10-03T22:23:17.344Z,10.55
2022-10-03T22:25:44.531Z,9.90
2022-10-03T22:28:28.097Z,10.23
2022-10-03T22:31:11.357Z,9.77
2022-10-03T22:33:54.588Z,9.88
2022-10-03T22:36:21.834Z,9.18
2022-10-03T22:38:49.239Z,10.05
2022-10-03T22:41:19.225Z,9.77
2022-10-03T22:43:47.493Z,9.30
2022-10-03T22:46:18.331Z,9.13
2022-10-03T22:48:51.000Z,9.18
2022-10-03T22:51:19.370Z,9.32
2022-10-03T22:53:49.874Z,9.43
2022-10-03T22:56:49.101Z,8.55
2022-10-03T22:59:27.276Z,8.52
2022-10-03T23:01:56.960Z,8.75
2022-10-03T23:04:46.627Z,9.23
2022-10-03T23:07:23.304Z,9.07
2022-10-03T23:10:01.582Z,9.68
2022-10-03T23:12:30.928Z,8.95
2022-10-03T23:14:58.659Z,9.25
2022-10-03T23:17:38.680Z,9.48
2022-10-03T23:20:28.356Z,9.52
2022-10-03T23:22:57.971Z,9.48
2022-10-03T23:25:31.733Z,8.88
2022-10-03T23:28:15.454Z,8.80
2022-10-03T23:30:51.098Z,9.87
2022-10-03T23:33:32.413Z,9.95
2022-10-03T23:36:04.391Z,9.20
2022-10-03T23:38:31.602Z,9.43
2022-10-03T23:41:28.052Z,8.85
2022-10-03T23:43:55.832Z,9.10
2022-10-03T23:46:24.386Z,10.07
2022-10-03T23:48:56.383Z,10.77
2022-10-03T23:51:30.227Z,10.65
2022-10-03T23:54:03.984Z,9.48
2022-10-03T23:56:38.471Z,10.60
2022-10-03T23:59:05.685Z,10.55
